sensor_id;sensor_type;location;lat;lon;timestamp;temperature;humidity
38398;DHT22;24179;52.094;4.408;2023-05-07T00:00:51;13.90;99.90
38398;DHT22;24179;52.094;4.408;2023-05-07T00:03:52;13.90;99.90
38398;DHT22;24179;52.094;4.408;2023-05-07T00:06:55;13.90;99.90
38398;DHT22;24179;52.094;4.408;2023-05-07T00:09:55;13.90;99.90
38398;DHT22;24179;52.094;4.408;2023-05-07T00:12:56;13.90;99.90
38398;DHT22;24179;52.094;4.408;2023-05-07T00:15:56;13.90;99.90
38398;DHT22;24179;52.094;4.408;2023-05-07T00:18:57;13.90;99.90
38398;DHT22;24179;52.094;4.408;2023-05-07T00:21:57;13.90;99.90
38398;DHT22;24179;52.094;4.408;2023-05-07T00:24:58;13.80;99.90
38398;DHT22;24179;52.094;4.408;2023-05-07T00:27:59;13.80;99.90
38398;DHT22;24179;52.094;4.408;2023-05-07T00:31:03;13.70;99.90
38398;DHT22;24179;52.094;4.408;2023-05-07T00:34:04;13.70;99.90
38398;DHT22;24179;52.094;4.408;2023-05-07T00:37:04;13.70;99.90
38398;DHT22;24179;52.094;4.408;2023-05-07T00:40:05;13.70;99.90
38398;DHT22;24179;52.094;4.408;2023-05-07T00:43:07;13.70;99.90
38398;DHT22;24179;52.094;4.408;2023-05-07T00:46:08;13.70;99.90
38398;DHT22;24179;52.094;4.408;2023-05-07T00:49:10;13.70;99.90
38398;DHT22;24179;52.094;4.408;2023-05-07T00:52:11;13.80;99.90
38398;DHT22;24179;52.094;4.408;2023-05-07T00:55:13;13.80;99.90
38398;DHT22;24179;52.094;4.408;2023-05-07T00:58:14;13.80;99.90
38398;DHT22;24179;52.094;4.408;2023-05-07T01:01:15;13.90;99.90
38398;DHT22;24179;52.094;4.408;2023-05-07T01:04:18;13.90;99.90
38398;DHT22;24179;52.094;4.408;2023-05-07T01:07:18;13.90;99.90
38398;DHT22;24179;52.094;4.408;2023-05-07T01:10:19;13.90;99.90
38398;DHT22;24179;52.094;4.408;2023-05-07T01:13:20;13.90;99.90
38398;DHT22;24179;52.094;4.408;2023-05-07T01:16:20;13.90;99.90
38398;DHT22;24179;52.094;4.408;2023-05-07T01:19:22;13.90;99.90
38398;DHT22;24179;52.094;4.408;2023-05-07T01:22:29;13.80;99.90
38398;DHT22;24179;52.094;4.408;2023-05-07T01:25:31;13.70;99.90
38398;DHT22;24179;52.094;4.408;2023-05-07T01:28:31;13.60;99.90
38398;DHT22;24179;52.094;4.408;2023-05-07T01:31:32;13.60;99.90
38398;DHT22;24179;52.094;4.408;2023-05-07T01:34:33;13.50;99.90
38398;DHT22;24179;52.094;4.408;2023-05-07T01:37:34;13.40;99.90
38398;DHT22;24179;52.094;4.408;2023-05-07T01:40:35;13.40;99.90
38398;DHT22;24179;52.094;4.408;2023-05-07T01:43:36;13.30;99.90
38398;DHT22;24179;52.094;4.408;2023-05-07T01:46:37;13.30;99.90
38398;DHT22;24179;52.094;4.408;2023-05-07T01:49:37;13.40;99.90
38398;DHT22;24179;52.094;4.408;2023-05-07T01:52:38;13.40;99.90
38398;DHT22;24179;52.094;4.408;2023-05-07T01:55:38;13.50;99.90
38398;DHT22;24179;52.094;4.408;2023-05-07T01:58:40;13.60;99.90
38398;DHT22;24179;52.094;4.408;2023-05-07T02:01:40;13.60;99.90
38398;DHT22;24179;52.094;4.408;2023-05-07T02:04:41;13.60;99.90
38398;DHT22;24179;52.094;4.408;2023-05-07T02:07:41;13.60;99.90
38398;DHT22;24179;52.094;4.408;2023-05-07T02:10:42;13.70;99.90
38398;DHT22;24179;52.094;4.408;2023-05-07T02:13:42;13.70;99.90
38398;DHT22;24179;52.094;4.408;2023-05-07T02:16:43;13.70;99.90
38398;DHT22;24179;52.094;4.408;2023-05-07T02:19:43;13.70;99.90
38398;DHT22;24179;52.094;4.408;2023-05-07T02:22:44;13.80;99.90
38398;DHT22;24179;52.094;4.408;2023-05-07T02:25:44;13.80;99.90
38398;DHT22;24179;52.094;4.408;2023-05-07T02:28:45;13.80;99.90
38398;DHT22;24179;52.094;4.408;2023-05-07T02:31:46;13.80;99.90
38398;DHT22;24179;52.094;4.408;2023-05-07T02:34:49;13.80;99.90
38398;DHT22;24179;52.094;4.408;2023-05-07T02:37:50;13.90;99.90
38398;DHT22;24179;52.094;4.408;2023-05-07T02:40:50;13.90;99.90
38398;DHT22;24179;52.094;4.408;2023-05-07T02:43:51;13.80;99.90
38398;DHT22;24179;52.094;4.408;2023-05-07T02:46:51;13.80;99.90
38398;DHT22;24179;52.094;4.408;2023-05-07T02:49:52;13.80;99.90
38398;DHT22;24179;52.094;4.408;2023-05-07T02:52:53;13.90;99.90
38398;DHT22;24179;52.094;4.408;2023-05-07T02:55:56;13.90;99.90
38398;DHT22;24179;52.094;4.408;2023-05-07T02:58:57;13.90;99.90
38398;DHT22;24179;52.094;4.408;2023-05-07T03:01:57;14.00;99.90
38398;DHT22;24179;52.094;4.408;2023-05-07T03:04:57;14.00;99.90
38398;DHT22;24179;52.094;4.408;2023-05-07T03:07:58;14.00;99.90
38398;DHT22;24179;52.094;4.408;2023-05-07T03:10:58;14.00;99.90
38398;DHT22;24179;52.094;4.408;2023-05-07T03:13:59;14.00;99.90
38398;DHT22;24179;52.094;4.408;2023-05-07T03:17:00;14.00;99.90
38398;DHT22;24179;52.094;4.408;2023-05-07T03:20:01;14.00;99.90
38398;DHT22;24179;52.094;4.408;2023-05-07T03:23:02;14.10;99.90
38398;DHT22;24179;52.094;4.408;2023-05-07T03:26:02;14.00;99.90
38398;DHT22;24179;52.094;4.408;2023-05-07T03:29:03;14.00;99.90
38398;DHT22;24179;52.094;4.408;2023-05-07T03:32:03;14.10;99.90
38398;DHT22;24179;52.094;4.408;2023-05-07T03:35:04;14.10;99.90
38398;DHT22;24179;52.094;4.408;2023-05-07T03:38:04;14.10;99.90
38398;DHT22;24179;52.094;4.408;2023-05-07T03:41:05;14.10;99.90
38398;DHT22;24179;52.094;4.408;2023-05-07T03:44:06;14.10;99.90
38398;DHT22;24179;52.094;4.408;2023-05-07T03:47:06;14.10;99.90
38398;DHT22;24179;52.094;4.408;2023-05-07T03:50:07;14.10;99.90
38398;DHT22;24179;52.094;4.408;2023-05-07T03:53:07;14.00;99.90
38398;DHT22;24179;52.094;4.408;2023-05-07T03:56:08;14.00;99.90
38398;DHT22;24179;52.094;4.408;2023-05-07T03:59:11;14.00;99.90
38398;DHT22;24179;52.094;4.408;2023-05-07T04:02:12;14.10;99.90
38398;DHT22;24179;52.094;4.408;2023-05-07T04:05:12;14.10;99.90
38398;DHT22;24179;52.094;4.408;2023-05-07T04:08:14;14.10;99.90
38398;DHT22;24179;52.094;4.408;2023-05-07T04:11:14;14.10;99.90
38398;DHT22;24179;52.094;4.408;2023-05-07T04:14:15;14.10;99.90
38398;DHT22;24179;52.094;4.408;2023-05-07T04:17:15;14.10;99.90
38398;DHT22;24179;52.094;4.408;2023-05-07T04:20:16;14.10;99.90
38398;DHT22;24179;52.094;4.408;2023-05-07T04:23:17;14.20;99.90
38398;DHT22;24179;52.094;4.408;2023-05-07T04:26:17;14.20;99.90
38398;DHT22;24179;52.094;4.408;2023-05-07T04:29:18;14.20;99.90
38398;DHT22;24179;52.094;4.408;2023-05-07T04:32:18;14.20;99.90
38398;DHT22;24179;52.094;4.408;2023-05-07T04:35:19;14.20;99.90
38398;DHT22;24179;52.094;4.408;2023-05-07T04:38:19;14.20;99.90
38398;DHT22;24179;52.094;4.408;2023-05-07T04:41:20;14.20;99.90
38398;DHT22;24179;52.094;4.408;2023-05-07T04:44:21;14.30;99.90
38398;DHT22;24179;52.094;4.408;2023-05-07T04:47:21;14.30;99.90
38398;DHT22;24179;52.094;4.408;2023-05-07T04:50:21;14.30;99.90
38398;DHT22;24179;52.094;4.408;2023-05-07T04:53:24;14.40;99.90
38398;DHT22;24179;52.094;4.408;2023-05-07T04:56:27;14.40;99.90
38398;DHT22;24179;52.094;4.408;2023-05-07T04:59:27;14.40;99.90
38398;DHT22;24179;52.094;4.408;2023-05-07T05:02:27;14.40;99.90
38398;DHT22;24179;52.094;4.408;2023-05-07T05:05:28;14.50;99.90
38398;DHT22;24179;52.094;4.408;2023-05-07T05:08:29;14.50;99.90
38398;DHT22;24179;52.094;4.408;2023-05-07T05:11:30;14.60;99.90
38398;DHT22;24179;52.094;4.408;2023-05-07T05:14:31;14.60;99.90
38398;DHT22;24179;52.094;4.408;2023-05-07T05:17:31;14.60;99.90
38398;DHT22;24179;52.094;4.408;2023-05-07T05:20:31;14.70;99.90
38398;DHT22;24179;52.094;4.408;2023-05-07T05:23:32;14.70;99.90
38398;DHT22;24179;52.094;4.408;2023-05-07T05:26:32;14.80;99.90
38398;DHT22;24179;52.094;4.408;2023-05-07T05:29:33;14.80;99.90
38398;DHT22;24179;52.094;4.408;2023-05-07T05:32:33;14.90;99.90
38398;DHT22;24179;52.094;4.408;2023-05-07T05:35:34;14.90;99.90
38398;DHT22;24179;52.094;4.408;2023-05-07T05:38:35;14.90;99.90
38398;DHT22;24179;52.094;4.408;2023-05-07T05:41:36;15.00;99.90
38398;DHT22;24179;52.094;4.408;2023-05-07T05:44:36;15.10;99.90
38398;DHT22;24179;52.094;4.408;2023-05-07T05:47:37;15.20;99.90
38398;DHT22;24179;52.094;4.408;2023-05-07T05:50:37;15.20;99.90
38398;DHT22;24179;52.094;4.408;2023-05-07T05:53:38;15.30;99.90
38398;DHT22;24179;52.094;4.408;2023-05-07T05:56:38;15.50;99.90
38398;DHT22;24179;52.094;4.408;2023-05-07T05:59:39;15.60;99.90
38398;DHT22;24179;52.094;4.408;2023-05-07T06:02:40;15.70;99.90
38398;DHT22;24179;52.094;4.408;2023-05-07T06:05:40;15.80;99.90
38398;DHT22;24179;52.094;4.408;2023-05-07T06:08:41;15.90;99.90
38398;DHT22;24179;52.094;4.408;2023-05-07T06:11:41;16.00;99.90
38398;DHT22;24179;52.094;4.408;2023-05-07T06:14:42;16.10;99.90
38398;DHT22;24179;52.094;4.408;2023-05-07T06:17:43;16.20;99.90
38398;DHT22;24179;52.094;4.408;2023-05-07T06:20:43;16.30;99.90
38398;DHT22;24179;52.094;4.408;2023-05-07T06:23:44;16.40;99.90
38398;DHT22;24179;52.094;4.408;2023-05-07T06:26:44;16.60;99.90
38398;DHT22;24179;52.094;4.408;2023-05-07T06:29:45;16.70;99.90
38398;DHT22;24179;52.094;4.408;2023-05-07T06:32:45;16.80;99.90
38398;DHT22;24179;52.094;4.408;2023-05-07T06:35:46;16.80;99.90
38398;DHT22;24179;52.094;4.408;2023-05-07T06:38:46;16.60;99.90
38398;DHT22;24179;52.094;4.408;2023-05-07T06:41:47;16.50;99.90
38398;DHT22;24179;52.094;4.408;2023-05-07T06:44:47;16.70;99.90
38398;DHT22;24179;52.094;4.408;2023-05-07T06:47:48;17.30;99.90
38398;DHT22;24179;52.094;4.408;2023-05-07T06:50:48;18.20;99.90
38398;DHT22;24179;52.094;4.408;2023-05-07T06:53:49;19.00;99.90
38398;DHT22;24179;52.094;4.408;2023-05-07T06:56:49;19.60;99.90
38398;DHT22;24179;52.094;4.408;2023-05-07T06:59:49;20.10;99.90
38398;DHT22;24179;52.094;4.408;2023-05-07T07:02:50;19.70;99.90
38398;DHT22;24179;52.094;4.408;2023-05-07T07:05:51;20.20;99.90
38398;DHT22;24179;52.094;4.408;2023-05-07T07:08:51;21.10;99.90
38398;DHT22;24179;52.094;4.408;2023-05-07T07:11:52;21.80;99.90
38398;DHT22;24179;52.094;4.408;2023-05-07T07:14:52;22.20;99.90
38398;DHT22;24179;52.094;4.408;2023-05-07T07:17:53;21.50;99.90
38398;DHT22;24179;52.094;4.408;2023-05-07T07:20:53;20.90;99.90
38398;DHT22;24179;52.094;4.408;2023-05-07T07:23:54;21.20;99.90
38398;DHT22;24179;52.094;4.408;2023-05-07T07:26:54;22.10;99.90
38398;DHT22;24179;52.094;4.408;2023-05-07T07:29:55;23.00;99.90
38398;DHT22;24179;52.094;4.408;2023-05-07T07:32:56;23.90;99.90
38398;DHT22;24179;52.094;4.408;2023-05-07T07:36:02;24.20;99.90
38398;DHT22;24179;52.094;4.408;2023-05-07T07:39:02;23.90;99.90
38398;DHT22;24179;52.094;4.408;2023-05-07T07:42:03;23.30;99.90
38398;DHT22;24179;52.094;4.408;2023-05-07T07:45:05;22.50;99.90
38398;DHT22;24179;52.094;4.408;2023-05-07T07:48:06;21.60;99.90
38398;DHT22;24179;52.094;4.408;2023-05-07T07:51:06;21.10;99.90
38398;DHT22;24179;52.094;4.408;2023-05-07T07:54:07;21.60;99.90
38398;DHT22;24179;52.094;4.408;2023-05-07T07:57:08;22.70;99.90
38398;DHT22;24179;52.094;4.408;2023-05-07T08:00:08;23.60;99.90
38398;DHT22;24179;52.094;4.408;2023-05-07T08:03:09;24.40;99.90
38398;DHT22;24179;52.094;4.408;2023-05-07T08:06:10;25.10;99.90
38398;DHT22;24179;52.094;4.408;2023-05-07T08:09:11;24.90;99.90
38398;DHT22;24179;52.094;4.408;2023-05-07T08:12:11;25.20;99.90
38398;DHT22;24179;52.094;4.408;2023-05-07T08:15:12;25.60;99.90
38398;DHT22;24179;52.094;4.408;2023-05-07T08:18:12;24.80;99.90
38398;DHT22;24179;52.094;4.408;2023-05-07T08:21:13;23.80;99.90
38398;DHT22;24179;52.094;4.408;2023-05-07T08:24:14;22.80;99.90
38398;DHT22;24179;52.094;4.408;2023-05-07T08:27:14;22.30;99.90
38398;DHT22;24179;52.094;4.408;2023-05-07T08:30:15;22.40;99.90
38398;DHT22;24179;52.094;4.408;2023-05-07T08:33:15;22.10;99.90
38398;DHT22;24179;52.094;4.408;2023-05-07T08:36:16;21.90;99.90
38398;DHT22;24179;52.094;4.408;2023-05-07T08:39:16;21.70;99.90
38398;DHT22;24179;52.094;4.408;2023-05-07T08:42:17;21.70;99.90
38398;DHT22;24179;52.094;4.408;2023-05-07T08:45:18;21.80;99.90
38398;DHT22;24179;52.094;4.408;2023-05-07T08:48:19;22.10;99.90
38398;DHT22;24179;52.094;4.408;2023-05-07T08:51:21;22.40;99.90
38398;DHT22;24179;52.094;4.408;2023-05-07T08:54:21;22.60;99.90
38398;DHT22;24179;52.094;4.408;2023-05-07T08:57:22;22.30;99.90
38398;DHT22;24179;52.094;4.408;2023-05-07T09:00:24;22.20;99.90
38398;DHT22;24179;52.094;4.408;2023-05-07T09:03:25;22.20;99.90
38398;DHT22;24179;52.094;4.408;2023-05-07T09:06:25;22.00;99.90
38398;DHT22;24179;52.094;4.408;2023-05-07T09:09:26;22.20;99.90
38398;DHT22;24179;52.094;4.408;2023-05-07T09:12:27;22.60;99.90
38398;DHT22;24179;52.094;4.408;2023-05-07T09:15:28;22.60;99.90
38398;DHT22;24179;52.094;4.408;2023-05-07T09:18:28;22.60;99.90
38398;DHT22;24179;52.094;4.408;2023-05-07T09:21:29;22.80;99.90
38398;DHT22;24179;52.094;4.408;2023-05-07T09:24:30;22.80;99.90
38398;DHT22;24179;52.094;4.408;2023-05-07T09:27:35;23.10;99.90
38398;DHT22;24179;52.094;4.408;2023-05-07T09:30:35;23.50;99.90
38398;DHT22;24179;52.094;4.408;2023-05-07T09:33:36;24.00;99.90
38398;DHT22;24179;52.094;4.408;2023-05-07T09:36:37;24.30;99.90
38398;DHT22;24179;52.094;4.408;2023-05-07T09:39:44;24.70;99.90
38398;DHT22;24179;52.094;4.408;2023-05-07T09:42:45;25.20;99.90
38398;DHT22;24179;52.094;4.408;2023-05-07T09:45:47;25.00;99.90
38398;DHT22;24179;52.094;4.408;2023-05-07T09:48:52;24.80;99.90
38398;DHT22;24179;52.094;4.408;2023-05-07T09:51:52;24.80;99.90
38398;DHT22;24179;52.094;4.408;2023-05-07T09:54:53;24.00;99.90
38398;DHT22;24179;52.094;4.408;2023-05-07T09:57:55;23.30;99.90
38398;DHT22;24179;52.094;4.408;2023-05-07T10:00:56;23.00;99.90
38398;DHT22;24179;52.094;4.408;2023-05-07T10:03:56;23.00;99.90
38398;DHT22;24179;52.094;4.408;2023-05-07T10:06:57;23.20;99.90
38398;DHT22;24179;52.094;4.408;2023-05-07T10:09:59;23.20;99.90
38398;DHT22;24179;52.094;4.408;2023-05-07T10:13:00;23.40;99.90
38398;DHT22;24179;52.094;4.408;2023-05-07T10:16:03;23.50;99.90
38398;DHT22;24179;52.094;4.408;2023-05-07T10:19:03;23.90;99.90
38398;DHT22;24179;52.094;4.408;2023-05-07T10:22:05;24.00;99.90
38398;DHT22;24179;52.094;4.408;2023-05-07T10:25:06;23.90;99.90
38398;DHT22;24179;52.094;4.408;2023-05-07T10:28:09;24.20;99.90
38398;DHT22;24179;52.094;4.408;2023-05-07T10:34:13;26.20;99.90
38398;DHT22;24179;52.094;4.408;2023-05-07T10:37:14;26.70;99.90
38398;DHT22;24179;52.094;4.408;2023-05-07T10:40:15;27.30;99.90
38398;DHT22;24179;52.094;4.408;2023-05-07T10:43:17;27.00;99.90
38398;DHT22;24179;52.094;4.408;2023-05-07T10:46:18;27.30;99.90
38398;DHT22;24179;52.094;4.408;2023-05-07T10:49:19;27.40;99.90
38398;DHT22;24179;52.094;4.408;2023-05-07T10:52:20;26.80;99.90
38398;DHT22;24179;52.094;4.408;2023-05-07T10:55:21;26.10;99.90
38398;DHT22;24179;52.094;4.408;2023-05-07T10:58:25;25.50;99.90
38398;DHT22;24179;52.094;4.408;2023-05-07T11:04:45;24.90;99.90
38398;DHT22;24179;52.094;4.408;2023-05-07T11:08:06;24.80;99.90
38398;DHT22;24179;52.094;4.408;2023-05-07T11:11:06;24.90;99.90
38398;DHT22;24179;52.094;4.408;2023-05-07T11:14:07;24.70;99.90
38398;DHT22;24179;52.094;4.408;2023-05-07T11:17:08;24.70;99.90
38398;DHT22;24179;52.094;4.408;2023-05-07T11:20:08;24.50;99.90
38398;DHT22;24179;52.094;4.408;2023-05-07T11:26:29;23.80;99.90
38398;DHT22;24179;52.094;4.408;2023-05-07T11:29:31;23.30;99.90
38398;DHT22;24179;52.094;4.408;2023-05-07T11:32:31;23.30;99.90
38398;DHT22;24179;52.094;4.408;2023-05-07T11:35:32;23.20;99.90
38398;DHT22;24179;52.094;4.408;2023-05-07T11:38:36;22.60;99.90
38398;DHT22;24179;52.094;4.408;2023-05-07T11:41:37;22.20;99.90
38398;DHT22;24179;52.094;4.408;2023-05-07T11:44:41;22.00;99.90
38398;DHT22;24179;52.094;4.408;2023-05-07T11:47:42;21.50;99.90
38398;DHT22;24179;52.094;4.408;2023-05-07T11:53:53;20.30;99.90
38398;DHT22;24179;52.094;4.408;2023-05-07T11:56:53;19.70;99.90
38398;DHT22;24179;52.094;4.408;2023-05-07T11:59:56;19.40;99.90
38398;DHT22;24179;52.094;4.408;2023-05-07T12:02:59;19.10;99.90
38398;DHT22;24179;52.094;4.408;2023-05-07T12:06:02;18.90;99.90
38398;DHT22;24179;52.094;4.408;2023-05-07T12:09:05;19.00;99.90
38398;DHT22;24179;52.094;4.408;2023-05-07T12:12:11;18.90;99.90
38398;DHT22;24179;52.094;4.408;2023-05-07T12:15:15;18.60;99.90
38398;DHT22;24179;52.094;4.408;2023-05-07T12:18:15;18.30;99.90
38398;DHT22;24179;52.094;4.408;2023-05-07T12:21:16;18.20;99.90
38398;DHT22;24179;52.094;4.408;2023-05-07T12:24:17;18.50;99.90
38398;DHT22;24179;52.094;4.408;2023-05-07T12:27:18;18.80;99.90
38398;DHT22;24179;52.094;4.408;2023-05-07T12:30:18;19.10;99.90
38398;DHT22;24179;52.094;4.408;2023-05-07T12:33:20;19.20;99.90
38398;DHT22;24179;52.094;4.408;2023-05-07T12:36:23;19.60;99.90
38398;DHT22;24179;52.094;4.408;2023-05-07T12:39:23;19.80;99.90
38398;DHT22;24179;52.094;4.408;2023-05-07T12:42:32;20.00;99.90
38398;DHT22;24179;52.094;4.408;2023-05-07T12:45:38;20.10;99.90
38398;DHT22;24179;52.094;4.408;2023-05-07T12:48:45;20.10;99.90
38398;DHT22;24179;52.094;4.408;2023-05-07T12:51:46;20.00;99.90
38398;DHT22;24179;52.094;4.408;2023-05-07T12:54:47;19.80;99.90
38398;DHT22;24179;52.094;4.408;2023-05-07T12:57:48;19.60;99.90
38398;DHT22;24179;52.094;4.408;2023-05-07T13:00:49;19.60;99.90
38398;DHT22;24179;52.094;4.408;2023-05-07T13:03:50;19.40;99.90
38398;DHT22;24179;52.094;4.408;2023-05-07T13:06:50;19.30;99.90
38398;DHT22;24179;52.094;4.408;2023-05-07T13:09:51;19.20;99.90
38398;DHT22;24179;52.094;4.408;2023-05-07T13:12:51;19.30;99.90
38398;DHT22;24179;52.094;4.408;2023-05-07T13:15:52;19.50;99.90
38398;DHT22;24179;52.094;4.408;2023-05-07T13:18:52;19.70;99.90
38398;DHT22;24179;52.094;4.408;2023-05-07T13:21:53;19.70;99.90
38398;DHT22;24179;52.094;4.408;2023-05-07T13:24:53;20.00;99.90
38398;DHT22;24179;52.094;4.408;2023-05-07T13:27:54;20.40;99.90
38398;DHT22;24179;52.094;4.408;2023-05-07T13:30:54;20.60;99.90
38398;DHT22;24179;52.094;4.408;2023-05-07T13:33:54;20.90;99.90
38398;DHT22;24179;52.094;4.408;2023-05-07T13:36:56;21.00;99.90
38398;DHT22;24179;52.094;4.408;2023-05-07T13:39:59;21.00;99.90
38398;DHT22;24179;52.094;4.408;2023-05-07T13:43:00;21.20;99.90
38398;DHT22;24179;52.094;4.408;2023-05-07T13:46:03;21.50;99.90
38398;DHT22;24179;52.094;4.408;2023-05-07T13:49:04;21.80;99.90
38398;DHT22;24179;52.094;4.408;2023-05-07T13:52:04;22.10;99.90
38398;DHT22;24179;52.094;4.408;2023-05-07T13:55:06;22.20;99.90
38398;DHT22;24179;52.094;4.408;2023-05-07T13:58:07;22.00;99.90
38398;DHT22;24179;52.094;4.408;2023-05-07T14:01:07;21.60;99.90
38398;DHT22;24179;52.094;4.408;2023-05-07T14:04:08;21.30;99.90
38398;DHT22;24179;52.094;4.408;2023-05-07T14:07:08;21.30;99.90
38398;DHT22;24179;52.094;4.408;2023-05-07T14:10:09;21.30;99.90
38398;DHT22;24179;52.094;4.408;2023-05-07T14:13:11;21.40;99.90
38398;DHT22;24179;52.094;4.408;2023-05-07T14:16:11;21.50;99.90
38398;DHT22;24179;52.094;4.408;2023-05-07T14:19:12;21.70;99.90
38398;DHT22;24179;52.094;4.408;2023-05-07T14:22:13;21.70;99.90
38398;DHT22;24179;52.094;4.408;2023-05-07T14:25:13;21.70;99.90
38398;DHT22;24179;52.094;4.408;2023-05-07T14:28:14;21.90;99.90
38398;DHT22;24179;52.094;4.408;2023-05-07T14:31:14;22.20;99.90
38398;DHT22;24179;52.094;4.408;2023-05-07T14:34:17;22.80;99.90
38398;DHT22;24179;52.094;4.408;2023-05-07T14:37:18;23.40;99.90
38398;DHT22;24179;52.094;4.408;2023-05-07T14:40:20;23.70;99.90
38398;DHT22;24179;52.094;4.408;2023-05-07T14:43:20;23.90;99.90
38398;DHT22;24179;52.094;4.408;2023-05-07T14:46:21;23.70;99.90
38398;DHT22;24179;52.094;4.408;2023-05-07T14:49:22;23.80;99.90
38398;DHT22;24179;52.094;4.408;2023-05-07T14:52:22;24.20;99.90
38398;DHT22;24179;52.094;4.408;2023-05-07T14:55:23;24.40;99.90
38398;DHT22;24179;52.094;4.408;2023-05-07T14:58:23;24.40;99.90
38398;DHT22;24179;52.094;4.408;2023-05-07T15:01:25;24.00;99.90
38398;DHT22;24179;52.094;4.408;2023-05-07T15:04:25;23.60;99.90
38398;DHT22;24179;52.094;4.408;2023-05-07T15:07:26;23.30;99.90
38398;DHT22;24179;52.094;4.408;2023-05-07T15:10:29;22.90;99.90
38398;DHT22;24179;52.094;4.408;2023-05-07T15:13:29;22.90;99.90
38398;DHT22;24179;52.094;4.408;2023-05-07T15:16:30;22.80;99.90
38398;DHT22;24179;52.094;4.408;2023-05-07T15:19:30;22.80;99.90
38398;DHT22;24179;52.094;4.408;2023-05-07T15:22:31;23.30;99.90
38398;DHT22;24179;52.094;4.408;2023-05-07T15:25:31;23.10;99.90
38398;DHT22;24179;52.094;4.408;2023-05-07T15:28:33;22.80;99.90
38398;DHT22;24179;52.094;4.408;2023-05-07T15:31:34;22.30;99.90
38398;DHT22;24179;52.094;4.408;2023-05-07T15:34:34;21.90;99.90
38398;DHT22;24179;52.094;4.408;2023-05-07T15:37:35;21.70;99.90
38398;DHT22;24179;52.094;4.408;2023-05-07T15:40:35;21.60;99.90
38398;DHT22;24179;52.094;4.408;2023-05-07T15:43:46;21.20;99.90
38398;DHT22;24179;52.094;4.408;2023-05-07T15:46:47;20.70;99.90
38398;DHT22;24179;52.094;4.408;2023-05-07T15:49:47;20.50;99.90
38398;DHT22;24179;52.094;4.408;2023-05-07T15:52:48;20.40;99.90
38398;DHT22;24179;52.094;4.408;2023-05-07T15:55:48;20.00;99.90
38398;DHT22;24179;52.094;4.408;2023-05-07T15:58:49;19.80;99.90
38398;DHT22;24179;52.094;4.408;2023-05-07T16:01:49;19.60;99.90
38398;DHT22;24179;52.094;4.408;2023-05-07T16:04:50;19.60;99.90
38398;DHT22;24179;52.094;4.408;2023-05-07T16:07:51;19.40;99.90
38398;DHT22;24179;52.094;4.408;2023-05-07T16:10:52;19.40;99.90
38398;DHT22;24179;52.094;4.408;2023-05-07T16:13:52;19.20;99.90
38398;DHT22;24179;52.094;4.408;2023-05-07T16:16:53;19.10;99.90
38398;DHT22;24179;52.094;4.408;2023-05-07T16:19:53;19.10;99.90
38398;DHT22;24179;52.094;4.408;2023-05-07T16:22:54;19.00;99.90
38398;DHT22;24179;52.094;4.408;2023-05-07T16:25:54;18.90;99.90
38398;DHT22;24179;52.094;4.408;2023-05-07T16:28:55;18.90;99.90
38398;DHT22;24179;52.094;4.408;2023-05-07T16:31:56;18.90;99.90
38398;DHT22;24179;52.094;4.408;2023-05-07T16:34:57;18.90;99.90
38398;DHT22;24179;52.094;4.408;2023-05-07T16:37:57;18.90;99.90
38398;DHT22;24179;52.094;4.408;2023-05-07T16:40:58;18.90;99.90
38398;DHT22;24179;52.094;4.408;2023-05-07T16:43:58;18.90;99.90
38398;DHT22;24179;52.094;4.408;2023-05-07T16:46:58;18.90;99.90
38398;DHT22;24179;52.094;4.408;2023-05-07T16:49:59;18.80;99.90
38398;DHT22;24179;52.094;4.408;2023-05-07T16:52:59;18.90;99.90
38398;DHT22;24179;52.094;4.408;2023-05-07T16:56:04;19.00;99.90
38398;DHT22;24179;52.094;4.408;2023-05-07T16:59:04;19.00;99.90
38398;DHT22;24179;52.094;4.408;2023-05-07T17:02:06;19.10;99.90
38398;DHT22;24179;52.094;4.408;2023-05-07T17:05:07;19.20;99.90
38398;DHT22;24179;52.094;4.408;2023-05-07T17:08:07;19.20;99.90
38398;DHT22;24179;52.094;4.408;2023-05-07T17:11:08;19.20;99.90
38398;DHT22;24179;52.094;4.408;2023-05-07T17:14:08;19.20;99.90
38398;DHT22;24179;52.094;4.408;2023-05-07T17:17:09;19.40;99.90
38398;DHT22;24179;52.094;4.408;2023-05-07T17:20:10;19.60;99.90
38398;DHT22;24179;52.094;4.408;2023-05-07T17:23:10;19.70;99.90
38398;DHT22;24179;52.094;4.408;2023-05-07T17:26:14;19.70;99.90
38398;DHT22;24179;52.094;4.408;2023-05-07T17:29:15;19.70;99.90
38398;DHT22;24179;52.094;4.408;2023-05-07T17:32:16;19.50;99.90
38398;DHT22;24179;52.094;4.408;2023-05-07T17:35:16;19.50;99.90
38398;DHT22;24179;52.094;4.408;2023-05-07T17:38:17;19.40;99.90
38398;DHT22;24179;52.094;4.408;2023-05-07T17:41:17;19.40;99.90
38398;DHT22;24179;52.094;4.408;2023-05-07T17:44:18;19.30;99.90
38398;DHT22;24179;52.094;4.408;2023-05-07T17:47:20;19.10;99.90
38398;DHT22;24179;52.094;4.408;2023-05-07T17:50:20;18.90;99.90
38398;DHT22;24179;52.094;4.408;2023-05-07T17:53:21;18.70;99.90
38398;DHT22;24179;52.094;4.408;2023-05-07T17:56:26;18.70;99.90
38398;DHT22;24179;52.094;4.408;2023-05-07T17:59:27;18.70;99.90
38398;DHT22;24179;52.094;4.408;2023-05-07T18:02:27;18.70;99.90
38398;DHT22;24179;52.094;4.408;2023-05-07T18:05:28;18.80;99.90
38398;DHT22;24179;52.094;4.408;2023-05-07T18:08:29;18.80;99.90
38398;DHT22;24179;52.094;4.408;2023-05-07T18:11:29;18.90;99.90
38398;DHT22;24179;52.094;4.408;2023-05-07T18:14:32;18.90;99.90
38398;DHT22;24179;52.094;4.408;2023-05-07T18:17:32;18.90;99.90
38398;DHT22;24179;52.094;4.408;2023-05-07T18:20:33;18.90;99.90
38398;DHT22;24179;52.094;4.408;2023-05-07T18:23:33;18.80;99.90
38398;DHT22;24179;52.094;4.408;2023-05-07T18:26:35;18.60;99.90
38398;DHT22;24179;52.094;4.408;2023-05-07T18:29:36;18.50;99.90
38398;DHT22;24179;52.094;4.408;2023-05-07T18:32:36;18.50;99.90
38398;DHT22;24179;52.094;4.408;2023-05-07T18:35:37;18.50;99.90
38398;DHT22;24179;52.094;4.408;2023-05-07T18:38:37;18.40;99.90
38398;DHT22;24179;52.094;4.408;2023-05-07T18:41:38;18.30;99.90
38398;DHT22;24179;52.094;4.408;2023-05-07T18:44:38;18.30;99.90
38398;DHT22;24179;52.094;4.408;2023-05-07T18:47:39;18.30;99.90
38398;DHT22;24179;52.094;4.408;2023-05-07T18:50:42;18.10;99.90
38398;DHT22;24179;52.094;4.408;2023-05-07T18:53:43;17.90;99.90
38398;DHT22;24179;52.094;4.408;2023-05-07T18:56:44;17.70;99.90
38398;DHT22;24179;52.094;4.408;2023-05-07T18:59:44;17.60;99.90
38398;DHT22;24179;52.094;4.408;2023-05-07T19:02:45;17.50;99.90
38398;DHT22;24179;52.094;4.408;2023-05-07T19:05:45;17.40;99.90
38398;DHT22;24179;52.094;4.408;2023-05-07T19:08:46;17.30;99.90
38398;DHT22;24179;52.094;4.408;2023-05-07T19:11:46;17.20;99.90
38398;DHT22;24179;52.094;4.408;2023-05-07T19:14:47;17.10;99.90